Terminal Aerodrome Forecast
Issued by NWS North Platte, NE

Home | Current Version | Previous Version | Text Only | Print | Product List | Glossary On
Versions: 1 2 3 4 5 6 7 8 9 10 11 12 13
000
FTUS43 KLBF 220500
TAFLBF
TAF
KLBF 220520Z 2206/2306 12004KT P6SM SCT200
     FM221600 09010KT P6SM SCT070 BKN150 PROB30 2220/2224 VRB40KT
      2SM +TSRA OVC030CB
     FM230000 07010KT P6SM -TSRA OVC070CB
      TEMPO 2300/2304 VRB40KT 1SM +TSRA OVC020CB
     FM230500 07008KT P6SM OVC150=

USA.gov is the U.S. government's official web portal to all federal, state and local government web resources and services.